createdAt,value
2019-06-08T00:01:30.007Z,25.53
2019-06-08T00:04:01.762Z,23.70
2019-06-08T00:06:33.461Z,23.03
2019-06-08T00:09:05.294Z,25.43
2019-06-08T00:11:36.998Z,25.07
2019-06-08T00:14:08.716Z,26.87
2019-06-08T00:16:40.447Z,27.00
2019-06-08T00:19:13.194Z,27.90
2019-06-08T00:21:45.047Z,28.30
2019-06-08T00:24:17.778Z,27.77
2019-06-08T00:26:49.577Z,25.40
2019-06-08T00:29:22.407Z,27.33
2019-06-08T00:31:54.268Z,30.57
2019-06-08T00:34:26.112Z,29.50
2019-06-08T00:36:57.865Z,26.10
2019-06-08T00:39:29.568Z,25.07
2019-06-08T00:42:01.275Z,27.07
2019-06-08T00:44:33.202Z,24.10
2019-06-08T00:47:04.989Z,28.10
2019-06-08T00:49:36.832Z,25.83
2019-06-08T00:52:08.537Z,27.10
2019-06-08T00:54:40.345Z,30.80
2019-06-08T00:57:12.153Z,21.90
2019-06-08T00:59:43.899Z,32.67
2019-06-08T01:02:15.792Z,24.37
2019-06-08T01:04:47.510Z,26.17
2019-06-08T01:07:19.938Z,25.57
2019-06-08T01:09:51.789Z,28.53
2019-06-08T01:12:24.636Z,32.47
2019-06-08T01:14:56.520Z,25.53
2019-06-08T01:17:29.345Z,16.27
2019-06-08T01:20:01.290Z,19.27
2019-06-08T01:22:33.192Z,8.30
2019-06-08T01:25:05.509Z,9.37
2019-06-08T01:27:37.207Z,8.63
2019-06-08T01:30:09.636Z,6.40
2019-06-08T01:32:41.329Z,4.13
2019-06-08T01:35:13.180Z,6.70
2019-06-08T01:37:44.882Z,5.17
2019-06-08T01:40:16.901Z,4.90
2019-06-08T01:42:48.594Z,6.23
2019-06-08T01:45:30.079Z,6.57
2019-06-08T01:48:18.725Z,2.93
2019-06-08T01:50:37.461Z,4.83
2019-06-08T01:53:09.155Z,3.00
2019-06-08T01:55:40.895Z,1.53
2019-06-08T01:58:12.579Z,2.00
2019-06-08T02:00:44.303Z,3.77
2019-06-08T02:03:16.107Z,3.93
2019-06-08T02:05:47.820Z,3.20
2019-06-08T02:08:19.524Z,4.27
2019-06-08T02:10:51.255Z,2.70
2019-06-08T02:13:22.960Z,3.87
2019-06-08T02:15:54.776Z,6.00
2019-06-08T02:18:36.333Z,2.77
2019-06-08T02:21:00.185Z,3.30
2019-06-08T02:23:33.021Z,3.90
2019-06-08T02:26:05.097Z,2.13
2019-06-08T02:28:36.900Z,3.10
2019-06-08T02:31:08.718Z,2.37
2019-06-08T02:33:40.589Z,10.10
2019-06-08T02:36:12.429Z,4.27
2019-06-08T02:38:44.136Z,3.03
2019-06-08T02:41:15.976Z,3.13
2019-06-08T02:43:47.681Z,3.60
2019-06-08T02:46:19.596Z,3.27
2019-06-08T02:49:03.647Z,5.53
2019-06-08T02:51:25.014Z,9.53
2019-06-08T02:53:57.290Z,5.63
2019-06-08T02:56:31.981Z,5.70
2019-06-08T02:59:04.048Z,3.43
2019-06-08T03:01:36.147Z,2.87
2019-06-08T03:04:10.836Z,1.40
2019-06-08T03:06:44.466Z,3.33
2019-06-08T03:09:17.381Z,3.80
2019-06-08T03:11:49.596Z,2.50
2019-06-08T03:14:25.506Z,2.53
2019-06-08T03:16:57.220Z,3.97
2019-06-08T03:19:28.913Z,3.13
2019-06-08T03:22:00.633Z,4.70
2019-06-08T03:24:32.940Z,2.90
2019-06-08T03:27:05.952Z,3.00
2019-06-08T03:29:39.049Z,4.27
2019-06-08T03:32:11.390Z,2.90
2019-06-08T03:34:53.897Z,4.03
2019-06-08T03:37:16.808Z,12.00
2019-06-08T03:39:48.506Z,5.03
2019-06-08T03:42:20.314Z,5.20
2019-06-08T03:44:52.056Z,4.10
2019-06-08T03:47:23.891Z,1.27
2019-06-08T03:49:57.614Z,8.87
2019-06-08T03:52:29.320Z,4.30
2019-06-08T03:55:01.105Z,1.93
2019-06-08T03:57:32.804Z,4.37
2019-06-08T04:00:12.852Z,3.77
2019-06-08T04:02:39.847Z,4.27
2019-06-08T04:05:12.455Z,6.63
2019-06-08T04:07:46.429Z,3.07
2019-06-08T04:10:17.927Z,2.10
2019-06-08T04:12:50.167Z,2.60
2019-06-08T04:15:22.041Z,2.57
2019-06-08T04:17:53.755Z,2.23
2019-06-08T04:20:25.542Z,2.50
2019-06-08T04:22:57.245Z,1.27
2019-06-08T04:25:28.935Z,2.63
2019-06-08T04:28:00.641Z,3.40
2019-06-08T04:30:32.451Z,3.20
2019-06-08T04:33:04.149Z,3.33
2019-06-08T04:35:35.851Z,5.03
2019-06-08T04:38:07.674Z,4.53
2019-06-08T04:40:41.427Z,1.47
2019-06-08T04:43:13.101Z,2.53
2019-06-08T04:45:45.836Z,6.73
2019-06-08T04:48:18.496Z,3.17
2019-06-08T04:50:50.205Z,2.17
2019-06-08T04:53:21.914Z,5.53
2019-06-08T04:55:53.605Z,3.10
2019-06-08T04:58:25.422Z,4.40
2019-06-08T05:00:57.133Z,8.57
2019-06-08T05:03:29.007Z,1.23
2019-06-08T05:06:00.738Z,4.80
2019-06-08T05:08:32.453Z,3.67
2019-06-08T05:11:04.272Z,5.50
2019-06-08T05:13:35.985Z,3.70
2019-06-08T05:16:07.789Z,4.30
2019-06-08T05:18:41.059Z,2.47
2019-06-08T05:21:13.021Z,2.03
2019-06-08T05:23:45.595Z,3.03
2019-06-08T05:26:17.540Z,2.90
2019-06-08T05:28:49.544Z,3.77
2019-06-08T05:31:21.466Z,2.97
2019-06-08T05:33:53.300Z,9.17
2019-06-08T05:36:25.102Z,2.75
2019-06-08T05:38:56.864Z,2.60
2019-06-08T05:41:28.553Z,2.10
2019-06-08T05:44:00.270Z,1.72
2019-06-08T05:46:32.055Z,5.45
2019-06-08T05:49:03.997Z,3.85
2019-06-08T05:51:35.796Z,3.00
2019-06-08T05:54:07.562Z,2.22
2019-06-08T05:56:39.801Z,2.20
2019-06-08T05:59:11.668Z,2.53
2019-06-08T06:01:44.593Z,3.10
2019-06-08T06:04:16.488Z,9.13
2019-06-08T06:06:49.269Z,1.17
2019-06-08T06:09:21.300Z,5.07
2019-06-08T06:11:53.212Z,3.20
2019-06-08T06:14:25.855Z,11.53
2019-06-08T06:16:57.568Z,10.13
2019-06-08T06:19:29.313Z,3.93
2019-06-08T06:22:01.231Z,4.30
2019-06-08T06:24:32.969Z,2.17
2019-06-08T06:27:04.745Z,2.47
2019-06-08T06:29:36.466Z,3.17
2019-06-08T06:32:08.256Z,2.87
2019-06-08T06:34:40.009Z,2.40
2019-06-08T06:37:11.723Z,4.20
2019-06-08T06:39:43.976Z,2.63
2019-06-08T06:42:15.789Z,8.13
2019-06-08T06:44:48.879Z,3.70
2019-06-08T06:47:21.133Z,6.63
2019-06-08T06:49:53.075Z,7.10
2019-06-08T06:52:24.782Z,5.07
2019-06-08T06:54:56.489Z,2.87
2019-06-08T06:57:28.220Z,1.67
2019-06-08T07:00:00.247Z,2.10
2019-06-08T07:02:32.046Z,2.97
2019-06-08T07:05:04.800Z,1.33
2019-06-08T07:07:36.507Z,4.00
2019-06-08T07:10:08.521Z,2.57
2019-06-08T07:12:40.237Z,2.77
2019-06-08T07:15:16.591Z,4.10
2019-06-08T07:17:48.357Z,3.57
2019-06-08T07:20:20.348Z,5.67
2019-06-08T07:22:52.261Z,3.33
2019-06-08T07:25:24.270Z,9.70
2019-06-08T07:27:55.989Z,9.73
2019-06-08T07:30:27.912Z,4.63
2019-06-08T07:32:59.637Z,3.30
2019-06-08T07:35:31.823Z,8.00
2019-06-08T07:38:06.670Z,3.13
2019-06-08T07:40:40.259Z,5.67
2019-06-08T07:43:12.059Z,3.83
2019-06-08T07:45:43.989Z,2.90
2019-06-08T07:48:15.694Z,2.20
2019-06-08T07:50:48.389Z,3.23
2019-06-08T07:53:20.321Z,11.73
2019-06-08T07:55:52.050Z,6.33
2019-06-08T07:58:24.236Z,5.63
2019-06-08T08:01:02.441Z,6.80
2019-06-08T08:03:29.762Z,4.83
2019-06-08T08:06:01.601Z,2.73
2019-06-08T08:08:33.316Z,6.00
2019-06-08T08:11:05.065Z,5.73
2019-06-08T08:13:36.986Z,6.17
2019-06-08T08:16:08.900Z,1.97
2019-06-08T08:18:40.700Z,3.70
2019-06-08T08:21:22.259Z,7.87
2019-06-08T08:23:47.888Z,7.67
2019-06-08T08:26:19.672Z,2.63
2019-06-08T08:28:53.053Z,4.97
2019-06-08T08:31:27.631Z,6.93
2019-06-08T08:34:05.321Z,2.73
2019-06-08T08:36:33.408Z,5.00
2019-06-08T08:39:08.417Z,2.17
2019-06-08T08:41:40.772Z,2.47
2019-06-08T08:44:12.475Z,3.13
2019-06-08T08:46:44.197Z,7.63
2019-06-08T08:49:18.063Z,2.53
2019-06-08T08:51:50.659Z,4.77
2019-06-08T08:54:22.745Z,5.23
2019-06-08T08:56:56.615Z,5.40
2019-06-08T08:59:28.173Z,2.00
2019-06-08T09:02:02.811Z,2.93
2019-06-08T09:04:33.693Z,4.57
2019-06-08T09:07:07.733Z,2.60
2019-06-08T09:09:39.133Z,0.97
2019-06-08T09:12:10.838Z,4.13
2019-06-08T09:14:42.549Z,12.87
2019-06-08T09:17:14.285Z,3.87
2019-06-08T09:19:48.055Z,5.00
2019-06-08T09:22:19.612Z,2.87
2019-06-08T09:24:52.679Z,2.40
2019-06-08T09:27:25.125Z,2.97
2019-06-08T09:29:59.700Z,4.87
2019-06-08T09:32:30.569Z,4.47
2019-06-08T09:35:04.403Z,1.57
2019-06-08T09:37:37.575Z,5.90
2019-06-08T09:40:10.597Z,4.43
2019-06-08T09:42:42.428Z,6.57
2019-06-08T09:45:14.532Z,3.93
2019-06-08T09:47:47.804Z,3.77
2019-06-08T09:50:20.061Z,5.63
2019-06-08T09:53:06.057Z,1.40
2019-06-08T09:55:25.402Z,4.97
2019-06-08T09:58:01.913Z,3.40
2019-06-08T10:00:30.754Z,3.40
2019-06-08T10:03:04.571Z,5.13
2019-06-08T10:05:38.692Z,2.33
2019-06-08T10:08:09.832Z,3.13
2019-06-08T10:10:41.784Z,6.30
2019-06-08T10:13:13.630Z,2.70
2019-06-08T10:15:45.412Z,6.20
2019-06-08T10:18:17.660Z,2.83
2019-06-08T10:20:49.649Z,5.37
2019-06-08T10:23:30.993Z,4.50
2019-06-08T10:25:55.016Z,3.30
2019-06-08T10:28:28.959Z,4.23
2019-06-08T10:31:01.651Z,3.93
2019-06-08T10:33:34.064Z,3.87
2019-06-08T10:36:09.475Z,9.67
2019-06-08T10:38:41.283Z,6.23
2019-06-08T10:41:20.902Z,3.10
2019-06-08T10:43:48.212Z,8.95
2019-06-08T10:46:20.866Z,8.95
2019-06-08T10:48:53.162Z,5.10
2019-06-08T10:51:25.047Z,7.20
2019-06-08T10:53:57.868Z,4.90
2019-06-08T10:56:31.115Z,4.33
2019-06-08T10:59:05.110Z,3.50
2019-06-08T11:01:38.537Z,4.45
2019-06-08T11:04:10.536Z,8.65
2019-06-08T11:06:42.351Z,5.17
2019-06-08T11:09:15.321Z,4.50
2019-06-08T11:11:48.199Z,6.53
2019-06-08T11:14:22.656Z,5.12
2019-06-08T11:16:54.003Z,8.75
2019-06-08T11:19:26.577Z,4.50
2019-06-08T11:22:02.850Z,5.25
2019-06-08T11:24:32.310Z,9.25
2019-06-08T11:27:05.592Z,7.33
2019-06-08T11:29:38.361Z,4.03
2019-06-08T11:32:12.437Z,5.05
2019-06-08T11:34:44.093Z,12.50
2019-06-08T11:37:20.654Z,5.70
2019-06-08T11:39:49.522Z,3.77
2019-06-08T11:42:21.349Z,4.50
2019-06-08T11:44:53.154Z,10.17
2019-06-08T11:47:27.743Z,7.80
2019-06-08T11:50:00.423Z,7.37
2019-06-08T11:52:32.592Z,4.65
2019-06-08T11:55:05.468Z,4.60
2019-06-08T11:57:40.507Z,12.43
2019-06-08T12:00:27.466Z,9.80
2019-06-08T12:02:57.966Z,5.45
2019-06-08T12:05:28.948Z,4.85
2019-06-08T12:08:00.684Z,10.85
2019-06-08T12:10:32.417Z,6.78
2019-06-08T12:13:04.689Z,8.83
2019-06-08T12:15:38.568Z,5.72
2019-06-08T12:18:11.383Z,3.95
2019-06-08T12:20:43.916Z,5.78
2019-06-08T12:23:15.922Z,8.98
2019-06-08T12:25:47.758Z,4.62
2019-06-08T12:28:19.450Z,7.20
2019-06-08T12:30:51.188Z,5.85
2019-06-08T12:33:23.025Z,7.83
2019-06-08T12:35:54.804Z,5.37
2019-06-08T12:38:30.016Z,4.70
2019-06-08T12:41:00.241Z,5.45
2019-06-08T12:43:31.961Z,7.08
2019-06-08T12:46:03.773Z,5.33
2019-06-08T12:48:35.480Z,1.85
2019-06-08T12:51:10.012Z,6.03
2019-06-08T12:53:41.248Z,10.18
2019-06-08T12:56:13.566Z,8.43
2019-06-08T12:58:47.609Z,5.97
2019-06-08T13:01:19.640Z,4.22
2019-06-08T13:03:51.444Z,6.65
2019-06-08T13:06:23.173Z,7.50
2019-06-08T13:08:57.486Z,9.35
2019-06-08T13:11:28.613Z,6.62
2019-06-08T13:14:00.320Z,7.17
2019-06-08T13:16:32.120Z,7.70
2019-06-08T13:19:03.828Z,4.60
2019-06-08T13:21:35.877Z,7.47
2019-06-08T13:24:10.198Z,8.80
2019-06-08T13:26:42.776Z,5.15
2019-06-08T13:29:15.539Z,6.87
2019-06-08T13:31:47.492Z,12.78
2019-06-08T13:34:22.432Z,9.23
2019-06-08T13:36:52.822Z,10.32
2019-06-08T13:39:24.628Z,6.15
2019-06-08T13:41:56.343Z,6.58
2019-06-08T13:44:28.134Z,4.33
2019-06-08T13:47:00.080Z,5.17
2019-06-08T13:49:31.894Z,7.03
2019-06-08T13:52:03.788Z,5.60
2019-06-08T13:54:38.023Z,4.87
2019-06-08T13:57:09.209Z,7.65
2019-06-08T13:59:40.917Z,7.17
2019-06-08T14:02:13.559Z,4.97
2019-06-08T14:04:46.779Z,4.20
2019-06-08T14:07:24.538Z,4.67
2019-06-08T14:09:53.284Z,7.40
2019-06-08T14:12:28.235Z,3.23
2019-06-08T14:14:58.863Z,4.50
2019-06-08T14:17:30.582Z,9.43
2019-06-08T14:20:02.849Z,5.30
2019-06-08T14:22:34.581Z,3.30
2019-06-08T14:25:10.618Z,7.63
2019-06-08T14:27:40.021Z,4.47
2019-06-08T14:30:12.214Z,5.80
2019-06-08T14:32:44.032Z,4.97
2019-06-08T14:35:18.673Z,9.50
2019-06-08T14:37:49.633Z,9.90
2019-06-08T14:40:21.425Z,9.70
2019-06-08T14:42:53.188Z,3.77
2019-06-08T14:45:24.896Z,2.43
2019-06-08T14:47:58.594Z,3.70
2019-06-08T14:50:31.307Z,8.83
2019-06-08T14:53:03.475Z,15.20
2019-06-08T14:55:35.207Z,10.60
2019-06-08T14:58:08.372Z,2.77
2019-06-08T15:00:40.417Z,3.50
2019-06-08T15:03:12.124Z,2.67
2019-06-08T15:05:43.833Z,10.27
2019-06-08T15:08:17.553Z,5.47
2019-06-08T15:10:49.792Z,3.73
2019-06-08T15:13:21.926Z,8.30
2019-06-08T15:15:54.079Z,3.90
2019-06-08T15:18:26.428Z,3.70
2019-06-08T15:20:59.423Z,13.27
2019-06-08T15:23:32.714Z,6.13
2019-06-08T15:26:19.778Z,20.13
2019-06-08T15:28:38.404Z,4.83
2019-06-08T15:31:10.104Z,8.53
2019-06-08T15:33:41.874Z,2.63
2019-06-08T15:36:13.668Z,3.77
2019-06-08T15:38:47.847Z,4.17
2019-06-08T15:41:21.408Z,6.00
2019-06-08T15:43:52.665Z,6.43
2019-06-08T15:46:24.507Z,2.67
2019-06-08T15:48:56.415Z,2.83
2019-06-08T15:51:29.830Z,8.37
2019-06-08T15:54:01.742Z,7.13
2019-06-08T15:56:47.506Z,5.83
2019-06-08T15:59:09.260Z,3.60
2019-06-08T16:01:40.688Z,3.87
2019-06-08T16:04:12.415Z,7.53
2019-06-08T16:06:44.163Z,10.80
2019-06-08T16:09:15.956Z,5.10
2019-06-08T16:11:47.695Z,5.60
2019-06-08T16:14:19.414Z,6.43
2019-06-08T16:16:51.129Z,5.17
2019-06-08T16:19:22.952Z,7.33
2019-06-08T16:21:54.690Z,4.80
2019-06-08T16:24:27.725Z,5.43
2019-06-08T16:26:59.703Z,4.07
2019-06-08T16:29:31.411Z,7.90
2019-06-08T16:32:03.211Z,8.43
2019-06-08T16:34:35.657Z,3.20
2019-06-08T16:37:07.477Z,14.73
2019-06-08T16:39:39.194Z,4.23
2019-06-08T16:42:10.904Z,4.50
2019-06-08T16:44:42.630Z,6.87
2019-06-08T16:47:14.436Z,3.50
2019-06-08T16:49:46.139Z,6.70
2019-06-08T16:52:17.889Z,7.83
2019-06-08T16:54:49.702Z,5.00
2019-06-08T16:57:21.400Z,7.90
2019-06-08T16:59:53.109Z,3.67
2019-06-08T17:02:24.817Z,3.47
2019-06-08T17:04:56.528Z,8.07
2019-06-08T17:07:29.267Z,7.13
2019-06-08T17:10:01.159Z,8.07
2019-06-08T17:12:32.888Z,2.53
2019-06-08T17:15:04.840Z,2.90
2019-06-08T17:17:36.676Z,7.93
2019-06-08T17:20:08.780Z,4.27
2019-06-08T17:22:40.927Z,9.20
2019-06-08T17:25:13.113Z,5.43
2019-06-08T17:27:44.817Z,3.93
2019-06-08T17:30:16.872Z,2.60
2019-06-08T17:32:48.665Z,4.27
2019-06-08T17:35:20.384Z,5.17
2019-06-08T17:37:52.092Z,4.13
2019-06-08T17:40:23.899Z,5.03
2019-06-08T17:42:55.636Z,7.63
2019-06-08T17:45:27.447Z,4.73
2019-06-08T17:47:59.160Z,3.67
2019-06-08T17:50:30.880Z,5.63
2019-06-08T17:53:02.897Z,5.17
2019-06-08T17:55:35.116Z,4.87
2019-06-08T17:58:07.106Z,6.17
2019-06-08T18:00:39.504Z,4.80
2019-06-08T18:03:11.349Z,4.00
2019-06-08T18:05:45.551Z,4.33
2019-06-08T18:08:17.548Z,2.80
2019-06-08T18:10:49.357Z,5.33
2019-06-08T18:13:21.078Z,5.77
2019-06-08T18:15:52.809Z,5.20
2019-06-08T18:18:24.516Z,7.23
2019-06-08T18:20:57.737Z,4.13
2019-06-08T18:23:29.949Z,4.27
2019-06-08T18:26:01.687Z,3.43
2019-06-08T18:28:34.494Z,5.90
2019-06-08T18:31:07.516Z,8.73
2019-06-08T18:33:41.257Z,7.10
2019-06-08T18:36:13.030Z,6.77
2019-06-08T18:38:46.193Z,4.57
2019-06-08T18:41:18.468Z,5.37
2019-06-08T18:43:52.627Z,4.70
2019-06-08T18:46:23.901Z,6.20
2019-06-08T18:48:57.882Z,7.40
2019-06-08T18:51:29.324Z,6.20
2019-06-08T18:54:11.796Z,6.73
2019-06-08T18:56:36.047Z,7.50
2019-06-08T18:59:08.261Z,6.73
2019-06-08T19:01:40.808Z,6.27
2019-06-08T19:04:13.804Z,3.63
2019-06-08T19:06:48.387Z,5.37
2019-06-08T19:09:19.692Z,8.17
2019-06-08T19:11:51.432Z,7.57
2019-06-08T19:14:23.241Z,7.23
2019-06-08T19:16:57.928Z,3.30
2019-06-08T19:19:31.501Z,10.60
2019-06-08T19:22:02.298Z,15.47
2019-06-08T19:24:34.003Z,3.93
2019-06-08T19:27:07.823Z,6.40
2019-06-08T19:29:42.001Z,4.07
2019-06-08T19:32:13.033Z,5.50
2019-06-08T19:34:47.662Z,4.00
2019-06-08T19:37:18.380Z,12.27
2019-06-08T19:39:50.180Z,6.97
2019-06-08T19:42:35.767Z,6.93
2019-06-08T19:45:04.882Z,6.10
2019-06-08T19:47:29.142Z,7.23
2019-06-08T19:50:00.873Z,4.77
2019-06-08T19:52:32.588Z,6.07
2019-06-08T19:55:04.604Z,5.77
2019-06-08T19:57:36.332Z,6.47
2019-06-08T20:00:08.348Z,6.47
2019-06-08T20:02:40.575Z,3.83
2019-06-08T20:05:12.885Z,9.60
2019-06-08T20:07:44.931Z,5.40
2019-06-08T20:10:17.572Z,3.90
2019-06-08T20:12:50.983Z,4.10
2019-06-08T20:15:22.878Z,4.87
2019-06-08T20:17:57.273Z,3.53
2019-06-08T20:20:28.499Z,6.97
2019-06-08T20:23:00.357Z,8.27
2019-06-08T20:25:32.084Z,7.17
2019-06-08T20:28:03.841Z,4.03
2019-06-08T20:30:35.600Z,7.00
2019-06-08T20:33:08.190Z,5.37
2019-06-08T20:35:40.036Z,4.30
2019-06-08T20:38:11.758Z,6.93
2019-06-08T20:40:44.006Z,3.53
2019-06-08T20:43:17.723Z,4.20
2019-06-08T20:45:51.770Z,10.87
2019-06-08T20:48:23.108Z,8.40
2019-06-08T20:50:57.073Z,5.30
2019-06-08T20:53:28.485Z,2.80
2019-06-08T20:56:00.216Z,14.20
2019-06-08T20:58:31.940Z,5.90
2019-06-08T21:01:03.737Z,5.93
2019-06-08T21:03:35.503Z,5.40
2019-06-08T21:06:07.755Z,4.47
2019-06-08T21:08:39.865Z,2.23
2019-06-08T21:11:11.564Z,6.53
2019-06-08T21:13:45.185Z,14.40
2019-06-08T21:16:18.174Z,5.40
2019-06-08T21:18:50.871Z,8.67
2019-06-08T21:21:22.676Z,4.70
2019-06-08T21:23:59.746Z,9.03
2019-06-08T21:26:28.028Z,7.77
2019-06-08T21:29:00.557Z,3.23
2019-06-08T21:31:32.441Z,5.90
2019-06-08T21:34:04.161Z,5.93
2019-06-08T21:36:37.600Z,5.70
2019-06-08T21:39:09.475Z,8.90
2019-06-08T21:41:41.181Z,4.57
2019-06-08T21:44:12.925Z,9.40
2019-06-08T21:46:44.630Z,4.10
2019-06-08T21:49:18.270Z,8.30
2019-06-08T21:51:51.488Z,4.60
2019-06-08T21:54:23.689Z,9.33
2019-06-08T21:56:57.133Z,3.53
2019-06-08T21:59:29.008Z,3.63
2019-06-08T22:02:03.689Z,11.60
2019-06-08T22:04:34.508Z,6.70
2019-06-08T22:07:07.120Z,7.83
2019-06-08T22:09:39.023Z,2.17
2019-06-08T22:12:10.778Z,5.50
2019-06-08T22:14:42.505Z,9.67
2019-06-08T22:17:16.009Z,6.23
2019-06-08T22:19:47.937Z,5.67
2019-06-08T22:22:19.777Z,5.93
2019-06-08T22:24:52.259Z,8.17
2019-06-08T22:27:27.229Z,5.07
2019-06-08T22:30:00.978Z,5.40
2019-06-08T22:32:32.419Z,5.57
2019-06-08T22:35:04.544Z,6.63
2019-06-08T22:37:37.996Z,6.83
2019-06-08T22:40:09.956Z,3.83
2019-06-08T22:42:41.654Z,3.70
2019-06-08T22:45:13.678Z,8.20
2019-06-08T22:47:47.628Z,5.80
2019-06-08T22:50:19.195Z,4.77
2019-06-08T22:52:50.899Z,8.67
2019-06-08T22:55:22.621Z,8.67
2019-06-08T22:57:55.329Z,9.67
2019-06-08T23:00:27.920Z,4.07
2019-06-08T23:03:03.540Z,6.40
2019-06-08T23:05:33.756Z,6.90
2019-06-08T23:08:07.001Z,6.90
2019-06-08T23:10:39.112Z,7.40
2019-06-08T23:13:10.918Z,5.60
2019-06-08T23:15:43.237Z,6.50
2019-06-08T23:18:17.648Z,10.10
2019-06-08T23:20:48.672Z,7.60
2019-06-08T23:23:20.453Z,2.43
2019-06-08T23:25:52.168Z,8.33
2019-06-08T23:28:23.868Z,5.07
2019-06-08T23:31:05.446Z,4.87
2019-06-08T23:33:29.246Z,8.10
2019-06-08T23:36:33.623Z,9.00
2019-06-08T23:38:34.595Z,2.87
2019-06-08T23:41:08.749Z,7.53
2019-06-08T23:43:39.946Z,8.97
2019-06-08T23:46:11.671Z,4.57
2019-06-08T23:48:43.480Z,8.13
2019-06-08T23:51:15.193Z,6.77
2019-06-08T23:53:47.760Z,4.70
2019-06-08T23:56:19.824Z,7.50
2019-06-08T23:58:51.538Z,6.27
